Nearby METAR Reports

 

KSJC - San Jose, California, USA
Distance from station: NE 14km
Updated: 19/04/2021 06:53
Clear
Clear
 Wind from NNE
Wind: NNE 6 km/h
Temperature: 15°C
Dew Point: 10°C
Humidity: 72%
Barometer: 1019.3 hPa
Clouds: Clear
Visibility: 16 km
2021/04/19 04:53 KSJC 190453Z 02003KT 10SM CLR 15/10 A3010 RMK AO2 SLP193 T01500100 $
KNUQ - Moffett Nas/Mtn, California, USA
Distance from station: N 14km
Updated: 14/04/2021 00:40
NOT Current

 
2021/04/13 22:40 KNUQ 132240Z AUTO RMK AO2 PNO PWINO TSNO
 
KPAO - Palo Alto, California, USA
Distance from station: NNW 23km
Updated: 19/04/2021 05:47
NOT Current
Clear
Clear
 Wind from NNW
Wind: NNW 13 km/h
Temperature: 13°C
Dew Point: 9°C
Humidity: 77%
Barometer: 1019.3 hPa
Clouds: Clear
Visibility: 16 km
2021/04/19 03:47 KPAO 190347Z 33007KT 10SM SKC 13/09 A3010 RMK LAST
KRHV - San Jose/Reid, California, USA
Distance from station: ENE 19km
Updated: 19/04/2021 06:55
Clear
Clear
 Wind from NW
Wind: NW 6 km/h
Temperature: 16°C
Dew Point: 8°C
Humidity: 59%
Barometer: 1019.6 hPa
Clouds: Clear
Visibility: 16 km
2021/04/19 04:55 KRHV 190455Z 31003KT 10SM SKC 16/08 A3011
 
KOAK - Oakland, California, USA
Distance from station: NNW 50km
Updated: 19/04/2021 06:53
Few Clouds
Few Clouds
 Wind from calm
Wind: Calm
Temperature: 12°C
Dew Point: 8°C
Humidity: 77%
Barometer: 1020 hPa
Clouds: Few Clouds
Visibility: 16 km
Cloud details: Few Clouds 7620 m
2021/04/19 04:53 KOAK 190453Z 00000KT 10SM FEW250 12/08 A3012 RMK AO2 SLP197 T01170083
KSQL - San Carlos Airpo, California, USA
Distance from station: NW 34km
Updated: 19/04/2021 06:55
Clear
Clear
 Wind from NW
Wind: NW 6 km/h
Temperature: 13°C
Dew Point: 8°C
Humidity: 72%
Barometer: 1020 hPa
Clouds: Clear
Visibility: 16 km
2021/04/19 04:55 KSQL 190455Z AUTO 32003KT 10SM CLR 13/08 A3012 RMK AO2
 
KSFO - San Francisco, California, USA
Distance from station: NW 49km
Updated: 19/04/2021 06:56
Few Clouds
Few Clouds
 Wind from WNW
Wind: WNW 24 km/h
Temperature: 13°C
Dew Point: 7°C
Humidity: 67%
Barometer: 1019.3 hPa
Clouds: Few Clouds
Visibility: 16 km
Cloud details: Few Clouds 152 m
2021/04/19 04:56 KSFO 190456Z 30013KT 10SM FEW005 13/07 A3010 RMK AO2 SLP192 T01330067
KE16 - San Martin, California, USA
Distance from station: ESE 43km
Updated: 19/04/2021 06:55
Few Clouds
Few Clouds
 Wind from N
Wind: N 11 km/h
Temperature: 18°C
Dew Point: 2°C
Humidity: 34%
Barometer: 1019.6 hPa
Clouds: Few Clouds
Visibility: 16 km
Cloud details: Few Clouds 884 m
2021/04/19 04:55 KE16 190455Z AUTO 35006KT 10SM FEW029 18/02 A3011 RMK AO2 PWINO PNO
 
KWVI - Watsonville, California, USA
Distance from station: SSE 44km
Updated: 19/04/2021 07:04
Mist, Mostly cloudy
Mist, Mostly cloudy
 Wind from S
Wind: S 6 km/h
Temperature: 9°C
Dew Point: 8°C
Humidity: 94%
Barometer: 1020.3 hPa
Summary: Mist
Clouds: Mostly cloudy
Visibility: 8 km
Cloud details: Mostly cloudy 122 m
2021/04/19 05:04 KWVI 190504Z AUTO 19003KT 5SM BR BKN004 09/08 A3013 RMK AO2 T00940083
KHAF - Half Moon Bay, California, USA
Distance from station: WNW 50km
Updated: 19/04/2021 06:55
Mist, Overcast
Mist, Overcast
 Wind from calm
Wind: Calm
Temperature: 7°C
Dew Point: 5°C
Humidity: 87%
Barometer: 1021 hPa
Summary: Mist
Clouds: Overcast
Visibility: 8 km
Cloud details: Overcast 91 m
2021/04/19 04:55 KHAF 190455Z AUTO 00000KT 5SM BR OVC003 07/05 A3015 RMK AO2
 
KHWD - Hayward, California, USA
Distance from station: N 44km
Updated: 19/04/2021 06:54
Clear
Clear
 Wind from NW
Wind: NW 6 km/h
Temperature: 12°C
Dew Point: 8°C
Humidity: 77%
Barometer: 1019.3 hPa
Clouds: Clear
Visibility: 16 km
2021/04/19 04:54 KHWD 190454Z AUTO 32003KT 10SM CLR 12/08 A3010 RMK AO2 SLP204 T01220083
KLVK - Livermore, California, USA
Distance from station: NNE 51km
Updated: 19/04/2021 06:53
Clear
Clear
 Wind from calm
Wind: Calm
Temperature: 18°C
Dew Point: 2°C
Humidity: 34%
Barometer: 1018.3 hPa
Clouds: Clear
Visibility: 16 km
2021/04/19 04:53 KLVK 190453Z 00000KT 10SM CLR 18/02 A3007 RMK AO2 SLP180 T01830017